createdAt,value
2023-04-20T00:00:33.209Z,35.25
2023-04-20T00:01:33.286Z,35.25
2023-04-20T00:02:33.442Z,35.25
2023-04-20T00:03:33.563Z,35.23
2023-04-20T00:04:33.550Z,35.24
2023-04-20T00:05:33.607Z,35.23
2023-04-20T00:06:33.568Z,35.25
2023-04-20T00:07:33.648Z,35.26
2023-04-20T00:08:33.679Z,35.22
2023-04-20T00:09:33.740Z,35.23
2023-04-20T00:10:33.804Z,35.23
2023-04-20T00:11:33.857Z,35.24
2023-04-20T00:12:33.944Z,35.25
2023-04-20T00:13:33.973Z,35.22
2023-04-20T00:14:34.061Z,35.23
2023-04-20T00:15:34.106Z,35.24
2023-04-20T00:16:34.252Z,35.23
2023-04-20T00:17:34.295Z,35.23
2023-04-20T00:18:34.312Z,35.25
2023-04-20T00:19:34.333Z,35.25
2023-04-20T00:20:34.407Z,35.22
2023-04-20T00:21:34.475Z,35.25
2023-04-20T00:22:34.536Z,35.25
2023-04-20T00:23:34.609Z,35.27
2023-04-20T00:24:34.685Z,35.27
2023-04-20T00:25:34.749Z,35.22
2023-04-20T00:26:34.844Z,35.26
2023-04-20T00:27:34.844Z,35.27
2023-04-20T00:28:34.895Z,35.22
2023-04-20T00:29:34.971Z,35.24
2023-04-20T00:30:35.069Z,35.24
2023-04-20T00:31:35.087Z,35.23
2023-04-20T00:32:35.212Z,35.25
2023-04-20T00:33:35.208Z,35.21
2023-04-20T00:34:35.228Z,35.20
2023-04-20T00:35:35.287Z,35.22
2023-04-20T00:36:35.377Z,35.23
2023-04-20T00:37:35.376Z,35.23
2023-04-20T00:38:35.404Z,35.20
2023-04-20T00:39:35.454Z,35.20
2023-04-20T00:40:35.504Z,35.18
2023-04-20T00:41:35.554Z,35.19
2023-04-20T00:42:35.582Z,35.20
2023-04-20T00:43:35.659Z,35.17
2023-04-20T00:44:35.671Z,35.18
2023-04-20T00:45:35.749Z,35.21
2023-04-20T00:46:35.870Z,35.18
2023-04-20T00:47:35.852Z,35.19
2023-04-20T00:48:35.878Z,35.20
2023-04-20T00:49:35.984Z,35.21
2023-04-20T00:50:36.029Z,35.18
2023-04-20T00:51:36.057Z,35.17
2023-04-20T00:52:36.111Z,35.17
2023-04-20T00:53:36.126Z,35.18
2023-04-20T00:54:36.156Z,35.17
2023-04-20T00:55:36.227Z,35.15
2023-04-20T00:56:36.252Z,35.15
2023-04-20T00:57:36.303Z,35.14
2023-04-20T00:58:36.389Z,35.15
2023-04-20T00:59:36.406Z,35.15
2023-04-20T01:00:36.467Z,35.17
2023-04-20T01:01:36.519Z,35.15
2023-04-20T01:02:36.628Z,35.17
2023-04-20T01:03:36.739Z,35.16
2023-04-20T01:04:36.704Z,35.15
2023-04-20T01:05:36.660Z,35.16
2023-04-20T01:06:36.701Z,35.14
2023-04-20T01:07:36.753Z,35.14
2023-04-20T01:08:36.788Z,35.13
2023-04-20T01:09:36.785Z,35.14
2023-04-20T01:10:36.804Z,35.12
2023-04-20T01:11:36.890Z,35.13
2023-04-20T01:12:36.893Z,35.15
2023-04-20T01:13:36.969Z,35.13
2023-04-20T01:14:36.982Z,35.13
2023-04-20T01:15:37.052Z,35.13
2023-04-20T01:16:37.150Z,35.12
2023-04-20T01:17:37.107Z,35.12
2023-04-20T01:18:37.155Z,35.11
2023-04-20T01:19:37.168Z,35.13
2023-04-20T01:20:37.251Z,35.11
2023-04-20T01:21:37.275Z,35.11
2023-04-20T01:22:37.317Z,35.11
2023-04-20T01:23:37.345Z,35.12
2023-04-20T01:24:37.358Z,35.11
2023-04-20T01:25:37.397Z,35.11
2023-04-20T01:26:37.424Z,35.10
2023-04-20T01:27:37.470Z,35.11
2023-04-20T01:28:37.506Z,35.08
2023-04-20T01:29:37.554Z,35.09
2023-04-20T01:30:37.562Z,35.09
2023-04-20T01:31:37.645Z,35.10
2023-04-20T01:32:37.697Z,35.11
2023-04-20T01:33:37.692Z,35.11
2023-04-20T01:34:37.717Z,35.09
2023-04-20T01:35:37.737Z,35.12
2023-04-20T01:36:37.756Z,35.09
2023-04-20T01:37:37.769Z,35.10
2023-04-20T01:38:37.818Z,35.11
2023-04-20T01:39:37.874Z,35.11
2023-04-20T01:40:37.824Z,35.10
2023-04-20T01:41:37.840Z,35.06
2023-04-20T01:42:37.854Z,35.10
2023-04-20T01:43:38.602Z,35.08
2023-04-20T01:44:37.964Z,35.10
2023-04-20T01:45:37.982Z,35.06
2023-04-20T01:46:37.984Z,35.04
2023-04-20T01:47:38.079Z,35.04
2023-04-20T01:48:38.089Z,35.04
2023-04-20T01:49:38.112Z,35.05
2023-04-20T01:50:38.137Z,35.03
2023-04-20T01:51:38.139Z,35.02
2023-04-20T01:52:38.195Z,35.04
2023-04-20T01:53:38.242Z,35.02
2023-04-20T01:54:38.260Z,35.04
2023-04-20T01:55:38.310Z,35.03
2023-04-20T01:56:38.346Z,35.02
2023-04-20T01:57:38.338Z,35.03
2023-04-20T01:58:38.377Z,35.00
2023-04-20T01:59:38.430Z,34.99
2023-04-20T02:00:38.445Z,34.98
2023-04-20T02:01:38.455Z,34.96
2023-04-20T02:02:38.736Z,34.98
2023-04-20T02:03:38.723Z,34.97
2023-04-20T02:04:38.546Z,35.01
2023-04-20T02:05:38.558Z,34.98
2023-04-20T02:06:38.579Z,34.97
2023-04-20T02:07:38.660Z,34.97
2023-04-20T02:08:38.648Z,34.94
2023-04-20T02:09:38.647Z,34.95
2023-04-20T02:10:38.678Z,34.96
2023-04-20T02:11:38.669Z,34.98
2023-04-20T02:12:38.688Z,34.99
2023-04-20T02:13:38.727Z,34.97
2023-04-20T02:14:38.719Z,34.98
2023-04-20T02:15:38.789Z,34.96
2023-04-20T02:16:38.836Z,34.96
2023-04-20T02:17:38.823Z,34.93
2023-04-20T02:18:38.832Z,34.92
2023-04-20T02:19:38.877Z,34.92
2023-04-20T02:20:38.922Z,34.94
2023-04-20T02:21:38.945Z,34.94
2023-04-20T02:22:39.009Z,34.91
2023-04-20T02:23:39.023Z,34.91
2023-04-20T02:24:39.045Z,34.92
2023-04-20T02:25:39.072Z,34.90
2023-04-20T02:26:39.144Z,34.92
2023-04-20T02:27:39.147Z,34.91
2023-04-20T02:28:39.164Z,34.89
2023-04-20T02:29:39.212Z,34.88
2023-04-20T02:30:39.218Z,34.89
2023-04-20T02:31:39.246Z,34.91
2023-04-20T02:32:39.263Z,34.90
2023-04-20T02:33:39.215Z,34.93
2023-04-20T02:34:39.216Z,34.90
2023-04-20T02:35:39.215Z,34.92
2023-04-20T02:36:39.222Z,34.93
2023-04-20T02:37:39.243Z,34.91
2023-04-20T02:38:39.227Z,34.90
2023-04-20T02:39:39.240Z,34.91
2023-04-20T02:40:39.235Z,34.89
2023-04-20T02:41:39.250Z,34.89
2023-04-20T02:42:39.239Z,34.87
2023-04-20T02:43:39.240Z,34.88
2023-04-20T02:44:39.235Z,34.90
2023-04-20T02:45:39.226Z,34.87
2023-04-20T02:46:39.301Z,34.86
2023-04-20T02:47:39.248Z,34.90
2023-04-20T02:48:39.244Z,34.89
2023-04-20T02:49:39.266Z,34.88
2023-04-20T02:50:39.247Z,34.86
2023-04-20T02:51:39.261Z,34.90
2023-04-20T02:52:39.275Z,34.89
2023-04-20T02:53:39.237Z,34.86
2023-04-20T02:54:39.273Z,34.88
2023-04-20T02:55:39.229Z,34.88
2023-04-20T02:56:39.244Z,34.86
2023-04-20T02:57:39.242Z,34.86
2023-04-20T02:58:39.267Z,34.89
2023-04-20T02:59:39.249Z,34.89
2023-04-20T03:00:39.254Z,34.87
2023-04-20T03:01:39.256Z,34.90
2023-04-20T03:02:39.330Z,34.89
2023-04-20T03:03:39.383Z,34.88
2023-04-20T03:04:39.272Z,34.86
2023-04-20T03:05:39.227Z,34.85
2023-04-20T03:06:39.239Z,34.86
2023-04-20T03:07:39.231Z,34.84
2023-04-20T03:08:39.266Z,34.84
2023-04-20T03:09:39.246Z,34.80
2023-04-20T03:10:39.250Z,34.84
2023-04-20T03:11:39.273Z,34.84
2023-04-20T03:12:39.225Z,34.83
2023-04-20T03:13:39.233Z,34.82
2023-04-20T03:14:39.257Z,34.78
2023-04-20T03:15:39.230Z,34.76
2023-04-20T03:16:39.316Z,34.77
2023-04-20T03:17:39.231Z,34.77
2023-04-20T03:18:39.260Z,34.75
2023-04-20T03:19:39.218Z,34.77
2023-04-20T03:20:39.234Z,34.77
2023-04-20T03:21:39.233Z,34.78
2023-04-20T03:22:39.265Z,34.78
2023-04-20T03:23:39.235Z,34.75
2023-04-20T03:24:39.257Z,34.75
2023-04-20T03:25:39.277Z,34.72
2023-04-20T03:26:39.234Z,34.74
2023-04-20T03:27:39.250Z,34.76
2023-04-20T03:28:39.336Z,34.74
2023-04-20T03:29:39.249Z,34.77
2023-04-20T03:30:39.248Z,34.77
2023-04-20T03:31:39.286Z,34.76
2023-04-20T03:32:39.271Z,34.77
2023-04-20T03:33:39.272Z,34.75
2023-04-20T03:34:39.319Z,34.77
2023-04-20T03:35:39.257Z,34.72
2023-04-20T03:36:39.280Z,34.71
2023-04-20T03:37:39.264Z,34.72
2023-04-20T03:38:39.259Z,34.71
2023-04-20T03:39:39.275Z,34.74
2023-04-20T03:40:39.273Z,34.74
2023-04-20T03:41:39.261Z,34.76
2023-04-20T03:42:39.286Z,34.73
2023-04-20T03:43:39.300Z,34.71
2023-04-20T03:44:39.289Z,34.73
2023-04-20T03:45:39.344Z,34.68
2023-04-20T03:46:39.277Z,34.74
2023-04-20T03:47:39.322Z,34.72
2023-04-20T03:48:39.657Z,34.70
2023-04-20T03:49:39.316Z,34.70
2023-04-20T03:50:39.320Z,34.72
2023-04-20T03:51:39.301Z,34.72
2023-04-20T03:52:39.285Z,34.71
2023-04-20T03:53:39.733Z,34.69
2023-04-20T03:54:39.269Z,34.68
2023-04-20T03:55:39.268Z,34.69
2023-04-20T03:56:39.310Z,34.71
2023-04-20T03:57:39.272Z,34.70
2023-04-20T03:58:39.296Z,34.68
2023-04-20T03:59:39.305Z,34.68
2023-04-20T04:00:39.265Z,34.69
2023-04-20T04:01:39.281Z,34.68
2023-04-20T04:02:39.428Z,34.69
2023-04-20T04:03:39.471Z,34.71
2023-04-20T04:04:39.370Z,34.67
2023-04-20T04:05:39.274Z,34.64
2023-04-20T04:06:39.276Z,34.64
2023-04-20T04:07:39.293Z,34.67
2023-04-20T04:08:39.297Z,34.64
2023-04-20T04:09:39.285Z,34.66
2023-04-20T04:10:39.289Z,34.70
2023-04-20T04:11:39.275Z,34.66
2023-04-20T04:12:39.281Z,34.62
2023-04-20T04:13:39.315Z,34.60
2023-04-20T04:14:39.266Z,34.63
2023-04-20T04:15:39.294Z,34.61
2023-04-20T04:16:39.344Z,34.61
2023-04-20T04:17:39.301Z,34.62
2023-04-20T04:18:39.300Z,34.66
2023-04-20T04:19:39.331Z,34.65
2023-04-20T04:20:39.340Z,34.64
2023-04-20T04:21:39.306Z,34.64
2023-04-20T04:22:39.301Z,34.62
2023-04-20T04:23:39.297Z,34.63
2023-04-20T04:24:39.298Z,34.61
2023-04-20T04:25:39.329Z,34.61
2023-04-20T04:26:39.340Z,34.64
2023-04-20T04:27:39.291Z,34.64
2023-04-20T04:28:39.339Z,34.63
2023-04-20T04:29:39.296Z,34.64
2023-04-20T04:30:39.309Z,34.65
2023-04-20T04:31:39.341Z,34.67
2023-04-20T04:32:39.417Z,34.65
2023-04-20T04:33:39.338Z,34.59
2023-04-20T04:34:39.318Z,34.63
2023-04-20T04:35:39.330Z,34.65
2023-04-20T04:36:39.381Z,34.65
2023-04-20T04:37:39.347Z,34.63
2023-04-20T04:38:39.367Z,34.60
2023-04-20T04:39:39.398Z,34.61
2023-04-20T04:40:39.358Z,34.57
2023-04-20T04:41:39.330Z,34.55
2023-04-20T04:42:39.357Z,34.59
2023-04-20T04:43:39.415Z,34.60
2023-04-20T04:44:39.335Z,34.58
2023-04-20T04:45:39.350Z,34.58
2023-04-20T04:46:39.420Z,34.57
2023-04-20T04:47:39.428Z,34.59
2023-04-20T04:48:39.405Z,34.54
2023-04-20T04:49:39.439Z,34.59
2023-04-20T04:50:39.369Z,34.55
2023-04-20T04:51:39.400Z,34.52
2023-04-20T04:52:39.379Z,34.50
2023-04-20T04:53:39.411Z,34.53
2023-04-20T04:54:39.426Z,34.54
2023-04-20T04:55:39.377Z,34.52
2023-04-20T04:56:39.397Z,34.51
2023-04-20T04:57:39.419Z,34.53
2023-04-20T04:58:39.426Z,34.47
2023-04-20T04:59:39.392Z,34.49
2023-04-20T05:00:39.387Z,34.53
2023-04-20T05:01:39.450Z,34.49
2023-04-20T05:02:39.844Z,34.52
2023-04-20T05:03:39.640Z,34.51
2023-04-20T05:04:39.533Z,34.52
2023-04-20T05:05:39.414Z,34.51
2023-04-20T05:06:39.388Z,34.51
2023-04-20T05:07:39.403Z,34.50
2023-04-20T05:08:39.401Z,34.47
2023-04-20T05:09:39.370Z,34.47
2023-04-20T05:10:39.378Z,34.46
2023-04-20T05:11:39.377Z,34.46
2023-04-20T05:12:39.397Z,34.48
2023-04-20T05:13:39.525Z,34.48
2023-04-20T05:14:39.369Z,34.48
2023-04-20T05:15:39.365Z,34.50
2023-04-20T05:16:39.509Z,34.48
2023-04-20T05:17:39.395Z,34.49
2023-04-20T05:18:39.382Z,34.44
2023-04-20T05:19:39.379Z,34.47
2023-04-20T05:20:39.381Z,34.46
2023-04-20T05:21:39.396Z,34.44
2023-04-20T05:22:39.369Z,34.47
2023-04-20T05:23:39.412Z,34.46
2023-04-20T05:24:39.391Z,34.46
2023-04-20T05:25:39.438Z,34.42
2023-04-20T05:26:39.434Z,34.49
2023-04-20T05:27:39.403Z,34.50
2023-04-20T05:28:39.574Z,34.51
2023-04-20T05:29:39.552Z,34.49
2023-04-20T05:30:39.407Z,34.50
2023-04-20T05:31:39.593Z,34.48
2023-04-20T05:32:39.516Z,34.44
2023-04-20T05:33:39.716Z,34.38
2023-04-20T05:34:39.495Z,34.35
2023-04-20T05:35:39.581Z,34.50
2023-04-20T05:36:39.638Z,34.60
2023-04-20T05:37:39.752Z,34.73
2023-04-20T05:38:39.984Z,35.13
2023-04-20T05:39:39.746Z,35.34
2023-04-20T05:40:39.793Z,35.50
2023-04-20T05:41:39.824Z,35.49
2023-04-20T05:42:39.892Z,35.56
2023-04-20T05:43:39.926Z,35.96
2023-04-20T05:44:39.879Z,35.92
2023-04-20T05:45:39.936Z,36.07
2023-04-20T05:46:39.967Z,36.37
2023-04-20T05:47:40.017Z,36.57
2023-04-20T05:48:40.230Z,36.74
2023-04-20T05:49:40.040Z,36.80
2023-04-20T05:50:40.006Z,37.05
2023-04-20T05:51:39.977Z,37.14
2023-04-20T05:52:40.703Z,37.29
2023-04-20T05:53:40.186Z,37.38
2023-04-20T05:54:39.950Z,37.40
2023-04-20T05:55:39.980Z,37.51
2023-04-20T05:56:39.990Z,37.52
2023-04-20T05:57:40.065Z,37.62
2023-04-20T05:58:40.160Z,37.64
2023-04-20T05:59:40.162Z,37.79
2023-04-20T06:00:40.230Z,37.76
2023-04-20T06:01:40.297Z,37.87
2023-04-20T06:02:40.535Z,37.93
2023-04-20T06:03:40.558Z,37.96
2023-04-20T06:04:40.598Z,38.09
2023-04-20T06:05:40.641Z,38.07
2023-04-20T06:06:40.597Z,38.28
2023-04-20T06:07:40.633Z,38.31
2023-04-20T06:08:40.897Z,38.32
2023-04-20T06:09:40.749Z,38.51
2023-04-20T06:10:40.764Z,38.59
2023-04-20T06:11:40.830Z,38.65
2023-04-20T06:12:40.865Z,38.77
2023-04-20T06:13:40.961Z,38.76
2023-04-20T06:14:41.152Z,38.85
2023-04-20T06:15:41.019Z,38.89
2023-04-20T06:16:41.000Z,39.00
2023-04-20T06:17:41.541Z,39.12
2023-04-20T06:18:41.089Z,39.16
2023-04-20T06:19:41.096Z,39.25
2023-04-20T06:20:41.092Z,39.34
2023-04-20T06:21:41.137Z,39.33
2023-04-20T06:22:41.162Z,39.39
2023-04-20T06:23:41.187Z,39.36
2023-04-20T06:24:41.190Z,39.48
2023-04-20T06:25:41.201Z,39.56
2023-04-20T06:26:41.222Z,39.60
2023-04-20T06:27:41.253Z,39.70
2023-04-20T06:28:41.269Z,39.68
2023-04-20T06:29:41.281Z,39.63
2023-04-20T06:30:41.304Z,39.78
2023-04-20T06:31:41.372Z,39.77
2023-04-20T06:32:42.291Z,39.85
2023-04-20T06:33:41.503Z,39.91
2023-04-20T06:34:41.376Z,39.99
2023-04-20T06:35:41.375Z,40.07
2023-04-20T06:36:41.344Z,40.12
2023-04-20T06:37:41.404Z,40.18
2023-04-20T06:38:41.402Z,40.24
2023-04-20T06:39:41.329Z,40.22
2023-04-20T06:40:41.375Z,40.10
2023-04-20T06:41:41.348Z,40.01
2023-04-20T06:42:44.261Z,40.00
2023-04-20T06:43:41.718Z,40.01
2023-04-20T06:44:41.305Z,40.07
2023-04-20T06:45:41.337Z,40.19
2023-04-20T06:46:41.327Z,40.23
2023-04-20T06:47:41.337Z,40.27
2023-04-20T06:48:41.728Z,40.29
2023-04-20T06:49:41.266Z,40.27
2023-04-20T06:50:41.303Z,40.28
2023-04-20T06:51:41.327Z,40.27
2023-04-20T06:52:41.242Z,40.31
2023-04-20T06:53:42.233Z,40.30
2023-04-20T06:54:41.229Z,40.32
2023-04-20T06:55:41.245Z,40.35
2023-04-20T06:56:41.229Z,40.31
2023-04-20T06:57:41.206Z,40.36
2023-04-20T06:58:41.706Z,39.16
2023-04-20T06:59:41.238Z,37.60
2023-04-20T07:00:41.239Z,38.97
2023-04-20T07:01:41.397Z,37.44
2023-04-20T07:02:41.261Z,37.46
2023-04-20T07:03:41.391Z,37.32
2023-04-20T07:04:41.174Z,36.80
2023-04-20T07:05:41.138Z,36.74
2023-04-20T07:06:41.148Z,36.42
2023-04-20T07:07:41.183Z,36.11
2023-04-20T07:08:41.185Z,35.32
2023-04-20T07:09:41.108Z,36.08
2023-04-20T07:10:41.117Z,35.76
2023-04-20T07:11:41.087Z,35.24
2023-04-20T07:12:43.103Z,35.28
2023-04-20T07:13:41.074Z,35.16
2023-04-20T07:14:41.069Z,35.21
2023-04-20T07:15:41.075Z,35.34
2023-04-20T07:16:41.286Z,35.42
2023-04-20T07:17:41.232Z,35.45
2023-04-20T07:18:41.290Z,35.56
2023-04-20T07:19:41.353Z,35.62
2023-04-20T07:20:41.357Z,35.69
2023-04-20T07:21:41.395Z,35.75
2023-04-20T07:22:41.433Z,35.79
2023-04-20T07:23:42.695Z,35.87
2023-04-20T07:24:41.438Z,35.97
2023-04-20T07:25:41.422Z,35.99
2023-04-20T07:26:41.422Z,36.09
2023-04-20T07:27:41.559Z,36.19
2023-04-20T07:28:41.489Z,36.18
2023-04-20T07:29:41.429Z,36.26
2023-04-20T07:30:41.390Z,36.47
2023-04-20T07:31:41.387Z,36.24
2023-04-20T07:32:41.459Z,36.20
2023-04-20T07:33:42.212Z,36.06
2023-04-20T07:34:41.775Z,36.03
2023-04-20T07:35:41.380Z,36.15
2023-04-20T07:36:41.358Z,36.14
2023-04-20T07:37:41.396Z,35.92
2023-04-20T07:38:41.384Z,35.92
2023-04-20T07:39:41.357Z,35.78
2023-04-20T07:40:41.317Z,35.78
2023-04-20T07:41:41.338Z,35.68
2023-04-20T07:42:41.301Z,35.58
2023-04-20T07:43:42.295Z,35.54
2023-04-20T07:44:41.318Z,35.34
2023-04-20T07:45:41.430Z,35.24
2023-04-20T07:46:41.288Z,35.11
2023-04-20T07:47:41.295Z,34.96
2023-04-20T07:48:41.261Z,34.83
2023-04-20T07:49:41.751Z,34.81
2023-04-20T07:50:41.303Z,34.74
2023-04-20T07:51:41.334Z,34.64
2023-04-20T07:52:41.239Z,34.62
2023-04-20T07:53:41.208Z,34.81
2023-04-20T07:54:41.272Z,34.91
2023-04-20T07:55:41.402Z,34.90
2023-04-20T07:56:41.211Z,34.89
2023-04-20T07:57:41.236Z,34.72
2023-04-20T07:58:41.274Z,34.62
2023-04-20T07:59:41.215Z,34.67
2023-04-20T08:00:41.186Z,34.62
2023-04-20T08:01:41.215Z,34.53
2023-04-20T08:02:41.355Z,34.47
2023-04-20T08:03:41.352Z,34.40
2023-04-20T08:04:41.555Z,34.30
2023-04-20T08:05:41.196Z,34.22
2023-04-20T08:06:41.244Z,34.19
2023-04-20T08:07:41.318Z,34.06
2023-04-20T08:08:41.331Z,33.93
2023-04-20T08:09:41.406Z,33.83
2023-04-20T08:10:41.481Z,33.79
2023-04-20T08:11:41.524Z,33.69
2023-04-20T08:12:41.581Z,33.57
2023-04-20T08:13:41.616Z,33.46
2023-04-20T08:14:41.661Z,33.40
2023-04-20T08:15:41.742Z,33.30
2023-04-20T08:16:41.785Z,33.24
2023-04-20T08:17:41.872Z,33.28
2023-04-20T08:18:42.552Z,33.19
2023-04-20T08:19:43.780Z,33.14
2023-04-20T08:20:41.908Z,33.06
2023-04-20T08:21:41.886Z,32.94
2023-04-20T08:22:41.908Z,33.18
2023-04-20T08:23:41.861Z,33.49
2023-04-20T08:24:41.884Z,34.76
2023-04-20T08:25:41.872Z,35.16
2023-04-20T08:26:41.885Z,35.41
2023-04-20T08:27:41.840Z,35.31
2023-04-20T08:28:41.864Z,35.28
2023-04-20T08:29:42.279Z,35.28
2023-04-20T08:30:41.918Z,35.31
2023-04-20T08:31:41.839Z,35.32
2023-04-20T08:32:41.849Z,35.28
2023-04-20T08:33:41.809Z,35.24
2023-04-20T08:34:41.815Z,35.29
2023-04-20T08:35:41.781Z,35.25
2023-04-20T08:36:41.800Z,35.25
2023-04-20T08:37:41.764Z,35.23
2023-04-20T08:38:41.789Z,35.23
2023-04-20T08:39:41.805Z,35.24
2023-04-20T08:40:41.772Z,35.21
2023-04-20T08:41:41.740Z,35.23
2023-04-20T08:42:41.737Z,35.23
2023-04-20T08:43:41.721Z,35.21
2023-04-20T08:44:41.749Z,35.72
2023-04-20T08:45:41.705Z,35.79
2023-04-20T08:46:41.761Z,36.55
2023-04-20T08:47:41.705Z,36.86
2023-04-20T08:48:41.713Z,37.30
2023-04-20T08:49:41.785Z,37.54
2023-04-20T08:50:41.707Z,37.94
2023-04-20T08:51:41.729Z,38.29
2023-04-20T08:52:41.695Z,38.69
2023-04-20T08:53:41.881Z,38.92
2023-04-20T08:54:55.379Z,39.05
2023-04-20T08:55:42.867Z,39.26
2023-04-20T08:56:41.898Z,39.43
2023-04-20T08:57:41.881Z,39.69
2023-04-20T08:58:41.992Z,39.69
2023-04-20T08:59:42.285Z,39.81
2023-04-20T09:00:42.063Z,39.78
2023-04-20T09:01:42.192Z,39.97
2023-04-20T09:02:42.236Z,40.02
2023-04-20T09:03:42.320Z,39.98
2023-04-20T09:04:42.364Z,40.07
2023-04-20T09:05:42.285Z,40.10
2023-04-20T09:06:42.316Z,40.12
2023-04-20T09:07:42.376Z,40.15
2023-04-20T09:08:42.400Z,40.17
2023-04-20T09:09:42.767Z,40.20
2023-04-20T09:10:42.492Z,40.27
2023-04-20T09:11:42.527Z,40.22
2023-04-20T09:12:42.586Z,40.24
2023-04-20T09:13:42.587Z,40.32
2023-04-20T09:14:42.772Z,40.27
2023-04-20T09:15:42.679Z,40.21
2023-04-20T09:16:42.785Z,40.24
2023-04-20T09:17:42.756Z,39.71
2023-04-20T09:18:42.790Z,39.54
2023-04-20T09:19:42.806Z,38.81
2023-04-20T09:20:42.872Z,38.21
2023-04-20T09:21:42.943Z,37.54
2023-04-20T09:22:42.957Z,37.18
2023-04-20T09:23:43.025Z,37.11
2023-04-20T09:24:43.125Z,36.73
2023-04-20T09:25:43.121Z,35.80
2023-04-20T09:26:43.179Z,36.06
2023-04-20T09:27:43.262Z,35.73
2023-04-20T09:28:43.330Z,35.53
2023-04-20T09:29:43.447Z,35.68
2023-04-20T09:30:43.418Z,35.66
2023-04-20T09:31:43.608Z,35.47
2023-04-20T09:32:43.414Z,35.22
2023-04-20T09:33:43.434Z,35.05
2023-04-20T09:34:43.764Z,35.11
2023-04-20T09:35:43.499Z,35.18
2023-04-20T09:36:43.687Z,35.44
2023-04-20T09:37:43.599Z,35.59
2023-04-20T09:38:43.630Z,35.75
2023-04-20T09:39:43.799Z,36.11
2023-04-20T09:40:43.657Z,35.92
2023-04-20T09:41:43.734Z,35.66
2023-04-20T09:42:43.697Z,35.26
2023-04-20T09:43:43.720Z,34.98
2023-04-20T09:44:44.293Z,34.81
2023-04-20T09:45:43.845Z,34.63
2023-04-20T09:46:43.868Z,34.59
2023-04-20T09:47:43.969Z,34.50
2023-04-20T09:48:43.904Z,34.30
2023-04-20T09:49:43.975Z,34.00
2023-04-20T09:50:49.852Z,34.00
2023-04-20T09:51:45.027Z,33.77
2023-04-20T09:52:43.985Z,33.77
2023-04-20T09:53:43.990Z,33.69
2023-04-20T09:54:43.963Z,33.71
2023-04-20T09:55:44.096Z,33.62
2023-04-20T09:56:43.970Z,33.52
2023-04-20T09:57:43.974Z,33.50
2023-04-20T09:58:44.038Z,33.72
2023-04-20T09:59:44.001Z,33.95
2023-04-20T10:00:43.953Z,33.92
2023-04-20T10:01:44.060Z,33.97
2023-04-20T10:02:44.056Z,33.82
2023-04-20T10:03:44.184Z,33.85
2023-04-20T10:04:44.174Z,33.76
2023-04-20T10:05:44.074Z,33.85
2023-04-20T10:06:44.069Z,33.83
2023-04-20T10:07:44.100Z,33.86
2023-04-20T10:08:44.227Z,33.91
2023-04-20T10:09:44.099Z,34.00
2023-04-20T10:10:44.103Z,34.08
2023-04-20T10:11:52.667Z,34.14
2023-04-20T10:12:45.109Z,34.25
2023-04-20T10:13:44.196Z,34.34
2023-04-20T10:14:44.118Z,34.35
2023-04-20T10:15:44.224Z,34.55
2023-04-20T10:16:44.102Z,34.53
2023-04-20T10:17:44.169Z,34.54
2023-04-20T10:18:44.183Z,34.68
2023-04-20T10:19:44.106Z,34.68
2023-04-20T10:20:44.096Z,34.68
2023-04-20T10:21:44.155Z,34.72
2023-04-20T10:22:44.198Z,34.73
2023-04-20T10:23:44.261Z,34.72
2023-04-20T10:24:44.358Z,34.83
2023-04-20T10:25:44.533Z,35.29
2023-04-20T10:26:44.412Z,35.32
2023-04-20T10:27:44.481Z,35.30
2023-04-20T10:28:44.513Z,35.42
2023-04-20T10:29:44.815Z,35.54
2023-04-20T10:30:44.705Z,34.89
2023-04-20T10:31:44.616Z,35.18
2023-04-20T10:32:44.755Z,35.16
2023-04-20T10:33:44.678Z,35.10
2023-04-20T10:34:45.485Z,34.94
2023-04-20T10:35:46.015Z,34.91
2023-04-20T10:36:44.834Z,34.85
2023-04-20T10:37:44.871Z,34.80
2023-04-20T10:38:44.937Z,34.67
2023-04-20T10:39:45.308Z,34.66
2023-04-20T10:40:45.038Z,34.68
2023-04-20T10:41:45.105Z,34.70
2023-04-20T10:42:45.263Z,34.66
2023-04-20T10:43:45.198Z,34.70
2023-04-20T10:44:45.314Z,34.73
2023-04-20T10:45:45.268Z,34.63
2023-04-20T10:46:45.406Z,34.55
2023-04-20T10:47:45.561Z,34.55
2023-04-20T10:48:45.417Z,34.54
2023-04-20T10:49:45.482Z,34.38
2023-04-20T10:50:45.493Z,34.47
2023-04-20T10:51:45.534Z,34.57
2023-04-20T10:52:45.588Z,34.69
2023-04-20T10:53:45.653Z,34.77
2023-04-20T10:54:45.706Z,34.82
2023-04-20T10:55:45.708Z,35.12
2023-04-20T10:56:45.751Z,35.16
2023-04-20T10:57:45.805Z,35.18
2023-04-20T10:58:45.841Z,35.26
2023-04-20T10:59:45.883Z,35.31
2023-04-20T11:00:45.890Z,35.62
2023-04-20T11:01:45.940Z,35.69
2023-04-20T11:02:46.033Z,35.70
2023-04-20T11:03:46.042Z,35.80
2023-04-20T11:04:46.030Z,35.70
2023-04-20T11:05:46.039Z,36.03
2023-04-20T11:06:46.138Z,35.92
2023-04-20T11:07:46.156Z,36.02
2023-04-20T11:08:46.189Z,35.97
2023-04-20T11:09:46.262Z,35.98
2023-04-20T11:10:46.215Z,36.36
2023-04-20T11:11:46.271Z,36.54
2023-04-20T11:12:46.299Z,36.55
2023-04-20T11:13:46.333Z,36.66
2023-04-20T11:14:46.478Z,36.86
2023-04-20T11:15:46.377Z,36.98
2023-04-20T11:16:51.618Z,37.13
2023-04-20T11:17:47.434Z,37.15
2023-04-20T11:18:46.556Z,37.17
2023-04-20T11:19:46.399Z,37.16
2023-04-20T11:20:46.402Z,36.58
2023-04-20T11:21:46.412Z,36.53
2023-04-20T11:22:46.378Z,36.57
2023-04-20T11:23:46.367Z,36.37
2023-04-20T11:24:46.356Z,36.28
2023-04-20T11:25:46.347Z,36.27
2023-04-20T11:26:46.355Z,36.24
2023-04-20T11:27:46.368Z,36.21
2023-04-20T11:28:46.337Z,36.20
2023-04-20T11:29:46.352Z,36.18
2023-04-20T11:30:46.395Z,36.17
2023-04-20T11:31:46.594Z,36.14
2023-04-20T11:32:46.579Z,36.13
2023-04-20T11:33:46.623Z,36.16
2023-04-20T11:34:50.256Z,36.13
2023-04-20T11:35:47.625Z,36.15
2023-04-20T11:36:46.740Z,36.10
2023-04-20T11:37:46.606Z,36.14
2023-04-20T11:38:46.625Z,36.12
2023-04-20T11:39:46.844Z,36.14
2023-04-20T11:40:46.577Z,36.11
2023-04-20T11:41:46.574Z,36.09
2023-04-20T11:42:46.604Z,36.08
2023-04-20T11:43:46.653Z,36.09
2023-04-20T11:44:46.827Z,36.06
2023-04-20T11:45:46.932Z,36.06
2023-04-20T11:46:46.818Z,36.03
2023-04-20T11:47:46.969Z,36.01
2023-04-20T11:48:46.947Z,36.00
2023-04-20T11:49:47.316Z,35.98
2023-04-20T11:50:47.078Z,35.95
2023-04-20T11:51:47.149Z,35.92
2023-04-20T11:52:47.218Z,35.92
2023-04-20T11:53:47.307Z,35.91
2023-04-20T11:54:47.324Z,35.89
2023-04-20T11:55:47.347Z,35.85
2023-04-20T11:56:47.448Z,35.82
2023-04-20T11:57:47.464Z,35.80
2023-04-20T11:58:47.539Z,35.78
2023-04-20T11:59:47.838Z,35.78
2023-04-20T12:00:47.627Z,35.76
2023-04-20T12:01:47.704Z,35.74
2023-04-20T12:02:47.894Z,35.71
2023-04-20T12:03:48.230Z,35.70
2023-04-20T12:04:47.972Z,35.67
2023-04-20T12:05:47.905Z,35.64
2023-04-20T12:06:47.925Z,35.60
2023-04-20T12:07:47.965Z,35.58
2023-04-20T12:08:48.059Z,35.56
2023-04-20T12:09:48.076Z,35.54
2023-04-20T12:10:48.136Z,35.52
2023-04-20T12:11:48.265Z,35.49
2023-04-20T12:12:48.233Z,35.47
2023-04-20T12:13:48.271Z,35.43
2023-04-20T12:14:48.380Z,35.42
2023-04-20T12:15:48.405Z,35.40
2023-04-20T12:16:48.434Z,35.36
2023-04-20T12:17:48.510Z,35.35
2023-04-20T12:18:48.509Z,35.36
2023-04-20T12:19:48.575Z,35.32
2023-04-20T12:20:48.638Z,35.28
2023-04-20T12:21:48.806Z,35.27
2023-04-20T12:22:48.700Z,35.23
2023-04-20T12:23:48.788Z,35.22
2023-04-20T12:24:48.797Z,35.23
2023-04-20T12:25:48.867Z,35.23
2023-04-20T12:26:48.955Z,35.18
2023-04-20T12:27:50.025Z,35.19
2023-04-20T12:28:48.983Z,35.18
2023-04-20T12:29:49.068Z,35.13
2023-04-20T12:30:49.120Z,35.12
2023-04-20T12:31:49.142Z,35.11
2023-04-20T12:32:49.168Z,35.06
2023-04-20T12:33:49.215Z,35.07
2023-04-20T12:34:49.266Z,35.06
2023-04-20T12:35:49.310Z,35.04
2023-04-20T12:36:49.354Z,35.03
2023-04-20T12:37:49.358Z,35.00
2023-04-20T12:38:49.407Z,34.97
2023-04-20T12:40:49.520Z,34.96
2023-04-20T12:41:49.523Z,34.94
2023-04-20T12:42:49.549Z,34.93
2023-04-20T12:43:49.629Z,34.90
2023-04-20T12:44:49.706Z,34.91
2023-04-20T12:45:49.675Z,34.88
2023-04-20T12:46:49.735Z,34.87
2023-04-20T12:47:49.788Z,34.88
2023-04-20T12:48:49.815Z,34.83
2023-04-20T12:49:49.875Z,34.84
2023-04-20T12:50:49.918Z,34.82
2023-04-20T12:51:50.843Z,34.80
2023-04-20T12:52:50.164Z,34.79
2023-04-20T12:53:50.005Z,34.80